createdAt,value
2022-08-18T00:01:13.411Z,14.43
2022-08-18T00:06:24.709Z,16.27
2022-08-18T00:08:57.193Z,14.25
2022-08-18T00:11:24.394Z,14.90
2022-08-18T00:13:51.515Z,16.52
2022-08-18T00:16:18.558Z,18.80
2022-08-18T00:18:45.623Z,14.25
2022-08-18T00:21:12.791Z,16.30
2022-08-18T00:23:39.898Z,13.93
2022-08-18T00:26:06.927Z,17.08
2022-08-18T00:28:33.975Z,18.67
2022-08-18T00:31:01.353Z,15.07
2022-08-18T00:33:28.423Z,16.27
2022-08-18T00:35:56.560Z,17.23
2022-08-18T00:38:25.300Z,16.65
2022-08-18T00:40:54.541Z,16.50
2022-08-18T00:43:27.453Z,16.88
2022-08-18T00:45:54.941Z,16.83
2022-08-18T00:48:24.010Z,18.08
2022-08-18T00:50:59.213Z,17.35
2022-08-18T00:53:37.943Z,17.50
2022-08-18T00:56:08.630Z,17.95
2022-08-18T00:58:43.427Z,15.65
2022-08-18T01:03:41.902Z,18.35
2022-08-18T01:06:27.301Z,15.68
2022-08-18T01:08:55.874Z,24.90
2022-08-18T01:11:23.244Z,18.63
2022-08-18T01:13:58.408Z,18.98
2022-08-18T01:16:52.348Z,20.17
2022-08-18T01:19:44.861Z,21.38
2022-08-18T01:22:35.229Z,19.23
2022-08-18T01:25:21.961Z,21.17
2022-08-18T01:27:57.046Z,19.23
2022-08-18T01:30:28.992Z,20.75
2022-08-18T01:32:57.559Z,16.55
2022-08-18T01:35:26.942Z,18.98
2022-08-18T01:37:55.124Z,16.50
2022-08-18T01:41:22.835Z,23.30
2022-08-18T01:43:12.992Z,21.63
2022-08-18T01:45:42.228Z,19.65
2022-08-18T01:48:09.534Z,22.25
2022-08-18T01:50:39.729Z,19.75
2022-08-18T01:53:08.042Z,18.02
2022-08-18T01:55:37.529Z,20.45
2022-08-18T01:58:07.828Z,21.98
2022-08-18T02:00:36.074Z,22.00
2022-08-18T02:03:09.706Z,20.73
2022-08-18T02:05:42.171Z,20.95
2022-08-18T02:08:12.307Z,21.75
2022-08-18T02:10:40.067Z,20.60
2022-08-18T02:13:07.601Z,21.02
2022-08-18T02:15:34.788Z,20.17
2022-08-18T02:18:01.963Z,20.23
2022-08-18T02:20:29.333Z,24.02
2022-08-18T02:22:58.533Z,21.10
2022-08-18T02:25:25.728Z,25.90
2022-08-18T02:27:53.315Z,23.73
2022-08-18T02:30:20.761Z,23.40
2022-08-18T02:32:48.545Z,21.25
2022-08-18T02:35:15.851Z,24.33
2022-08-18T02:37:47.681Z,29.05
2022-08-18T02:40:16.220Z,20.70
2022-08-18T02:42:45.623Z,28.50
2022-08-18T02:45:14.049Z,24.50
2022-08-18T02:47:43.102Z,23.85
2022-08-18T02:50:13.559Z,21.02
2022-08-18T02:52:41.241Z,27.23
2022-08-18T02:55:09.129Z,25.33
2022-08-18T02:57:36.399Z,26.20
2022-08-18T03:00:04.402Z,24.52
2022-08-18T03:02:32.325Z,30.40
2022-08-18T03:04:59.466Z,32.78
2022-08-18T03:07:26.580Z,28.88
2022-08-18T03:09:53.597Z,29.35
2022-08-18T03:12:20.620Z,31.02
2022-08-18T03:14:47.732Z,30.13
2022-08-18T03:17:15.023Z,25.80
2022-08-18T03:19:44.938Z,26.33
2022-08-18T03:24:57.298Z,26.30
2022-08-18T03:27:25.011Z,33.35
2022-08-18T03:29:52.396Z,42.60
2022-08-18T03:32:19.454Z,42.55
2022-08-18T03:34:46.477Z,33.88
2022-08-18T03:37:15.903Z,22.55
2022-08-18T03:39:43.181Z,19.95
2022-08-18T03:42:10.551Z,33.20
2022-08-18T03:44:37.599Z,27.13
2022-08-18T03:47:10.046Z,27.98
2022-08-18T03:49:38.465Z,28.25
2022-08-18T03:52:09.309Z,23.13
2022-08-18T03:54:38.759Z,22.63
2022-08-18T03:57:09.312Z,24.50
2022-08-18T03:59:36.656Z,19.88
2022-08-18T04:02:05.158Z,30.45
2022-08-18T04:04:32.477Z,27.30
2022-08-18T04:07:06.549Z,25.50
2022-08-18T04:09:35.382Z,29.23
2022-08-18T04:12:16.712Z,30.67
2022-08-18T04:14:48.299Z,28.95
2022-08-18T04:17:24.621Z,28.38
2022-08-18T04:19:53.790Z,29.02
2022-08-18T04:22:21.010Z,22.95
2022-08-18T04:24:50.145Z,26.52
2022-08-18T04:27:19.266Z,23.55
2022-08-18T04:29:47.085Z,22.42
2022-08-18T04:32:14.545Z,21.77
2022-08-18T04:34:41.658Z,26.60
2022-08-18T04:37:09.588Z,33.03
2022-08-18T04:39:37.717Z,26.92
2022-08-18T04:42:05.917Z,20.52
2022-08-18T04:44:34.354Z,29.00
2022-08-18T04:47:02.339Z,23.88
2022-08-18T04:49:31.437Z,28.13
2022-08-18T04:52:36.967Z,31.75
2022-08-18T04:55:04.929Z,27.17
2022-08-18T04:57:34.914Z,29.98
2022-08-18T05:00:04.290Z,32.50
2022-08-18T05:02:33.031Z,23.98
2022-08-18T05:05:01.495Z,29.60
2022-08-18T05:07:30.309Z,23.02
2022-08-18T05:09:57.434Z,25.60
2022-08-18T05:12:26.458Z,29.52
2022-08-18T05:14:56.618Z,27.98
2022-08-18T05:17:28.765Z,28.42
2022-08-18T05:20:00.977Z,28.35
2022-08-18T05:22:31.792Z,23.57
2022-08-18T05:25:00.599Z,27.48
2022-08-18T05:27:32.922Z,31.17
2022-08-18T05:30:00.011Z,27.90
2022-08-18T05:32:47.877Z,28.65
2022-08-18T05:35:23.631Z,32.25
2022-08-18T05:38:06.233Z,38.55
2022-08-18T05:40:34.356Z,38.00
2022-08-18T05:43:03.647Z,36.47
2022-08-18T05:45:30.856Z,35.78
2022-08-18T05:48:02.138Z,34.78
2022-08-18T05:50:32.659Z,41.75
2022-08-18T05:53:10.762Z,53.92
2022-08-18T05:56:05.322Z,44.17
2022-08-18T05:58:44.370Z,50.25
2022-08-18T06:01:20.955Z,51.65
2022-08-18T06:04:01.546Z,42.40
2022-08-18T06:06:30.693Z,38.08
2022-08-18T06:09:17.586Z,49.42
2022-08-18T06:11:45.517Z,46.35
2022-08-18T06:14:13.465Z,44.40
2022-08-18T06:17:09.025Z,37.92
2022-08-18T06:19:52.320Z,50.00
2022-08-18T06:22:36.392Z,50.88
2022-08-18T06:25:37.383Z,38.13
2022-08-18T06:28:09.138Z,37.63
2022-08-18T06:30:41.997Z,34.33
2022-08-18T06:33:33.606Z,35.50
2022-08-18T06:36:32.866Z,37.78
2022-08-18T06:39:16.619Z,35.17
2022-08-18T06:41:48.986Z,44.13
2022-08-18T06:44:39.830Z,33.13
2022-08-18T06:47:09.702Z,30.60
2022-08-18T06:49:46.609Z,38.60
2022-08-18T06:52:25.448Z,40.22
2022-08-18T06:54:54.727Z,36.15
2022-08-18T06:57:35.137Z,35.38
2022-08-18T07:00:08.558Z,44.80
2022-08-18T07:02:45.669Z,44.22
2022-08-18T07:05:20.638Z,34.75
2022-08-18T07:08:10.694Z,39.25
2022-08-18T07:10:41.897Z,35.83
2022-08-18T07:13:18.053Z,37.88
2022-08-18T07:15:45.697Z,37.60
2022-08-18T07:18:14.392Z,41.80
2022-08-18T07:20:55.133Z,43.15
2022-08-18T07:23:25.312Z,38.88
2022-08-18T07:26:00.474Z,32.15
2022-08-18T07:28:31.096Z,40.70
2022-08-18T07:31:35.836Z,52.88
2022-08-18T07:34:14.828Z,54.63
2022-08-18T07:36:51.128Z,45.35
2022-08-18T07:39:31.675Z,59.22
2022-08-18T07:42:11.170Z,56.50
2022-08-18T07:44:59.429Z,48.13
2022-08-18T07:47:37.941Z,44.72
2022-08-18T07:50:31.493Z,45.75
2022-08-18T07:53:15.941Z,50.42
2022-08-18T07:55:53.782Z,45.60
2022-08-18T07:58:30.677Z,46.60
2022-08-18T08:01:16.053Z,45.00
2022-08-18T08:03:58.369Z,47.78
2022-08-18T08:07:06.468Z,43.35
2022-08-18T08:10:16.041Z,54.92
2022-08-18T08:12:50.332Z,48.47
2022-08-18T08:15:32.129Z,45.80
2022-08-18T08:18:10.977Z,47.00
2022-08-18T08:20:45.897Z,47.90
2022-08-18T08:23:31.749Z,52.60
2022-08-18T08:26:02.964Z,47.03
2022-08-18T08:28:39.439Z,46.47
2022-08-18T08:31:37.337Z,44.08
2022-08-18T08:34:19.698Z,46.40
2022-08-18T08:36:48.067Z,44.90
2022-08-18T08:39:28.314Z,59.17
2022-08-18T08:42:29.761Z,43.10
2022-08-18T08:45:03.514Z,41.17
2022-08-18T08:47:39.825Z,39.75
2022-08-18T08:50:18.229Z,46.05
2022-08-18T08:52:58.839Z,40.90
2022-08-18T08:55:32.678Z,44.67
2022-08-18T08:58:28.788Z,46.85
2022-08-18T09:00:57.712Z,48.70
2022-08-18T09:03:46.150Z,45.10
2022-08-18T09:06:19.107Z,42.65
2022-08-18T09:09:04.880Z,46.47
2022-08-18T09:11:51.826Z,46.10
2022-08-18T09:14:30.897Z,47.35
2022-08-18T09:17:40.690Z,47.42
2022-08-18T09:20:26.501Z,44.58
2022-08-18T09:23:03.550Z,56.95
2022-08-18T09:25:39.139Z,51.30
2022-08-18T09:28:17.031Z,55.47
2022-08-18T09:31:15.043Z,50.10
2022-08-18T09:34:10.617Z,50.38
2022-08-18T09:36:59.645Z,55.90
2022-08-18T09:39:54.806Z,53.55
2022-08-18T09:42:59.795Z,54.25
2022-08-18T09:45:51.622Z,49.55
2022-08-18T09:48:28.519Z,45.97
2022-08-18T09:51:41.280Z,42.88
2022-08-18T09:54:13.273Z,49.67
2022-08-18T09:56:55.693Z,40.28
2022-08-18T09:59:35.379Z,39.42
2022-08-18T10:02:14.061Z,37.60
2022-08-18T10:04:50.438Z,40.67
2022-08-18T10:07:41.756Z,38.92
2022-08-18T10:13:39.089Z,41.78
2022-08-18T10:20:08.860Z,37.75
2022-08-18T10:22:54.760Z,42.03
2022-08-18T10:25:41.177Z,38.80
2022-08-18T10:28:12.662Z,40.25
2022-08-18T10:30:56.258Z,38.88
2022-08-18T10:34:19.316Z,38.17
2022-08-18T10:36:58.851Z,33.30
2022-08-18T10:39:39.677Z,34.30
2022-08-18T10:42:32.325Z,33.38
2022-08-18T10:46:12.993Z,33.45
2022-08-18T10:48:40.077Z,36.33
2022-08-18T10:51:21.685Z,35.78
2022-08-18T10:54:03.495Z,34.13
2022-08-18T10:56:54.337Z,39.15
2022-08-18T11:03:01.885Z,33.10
2022-08-18T11:05:31.874Z,31.52
2022-08-18T11:08:04.625Z,32.88
2022-08-18T11:13:40.816Z,29.00
2022-08-18T11:16:26.480Z,31.02
2022-08-18T11:19:03.696Z,28.92
2022-08-18T11:21:42.076Z,30.50
2022-08-18T11:24:17.734Z,26.50
2022-08-18T11:26:55.664Z,21.60
2022-08-18T11:29:41.068Z,22.17
2022-08-18T11:32:22.132Z,32.17
2022-08-18T11:34:53.941Z,28.67
2022-08-18T11:37:49.041Z,21.92
2022-08-18T11:43:41.121Z,19.00
2022-08-18T11:51:35.964Z,18.50
2022-08-18T11:54:12.523Z,22.08
2022-08-18T11:56:39.574Z,23.40
2022-08-18T11:59:53.606Z,20.15
2022-08-18T12:02:25.284Z,19.40
2022-08-18T12:05:10.168Z,19.60
2022-08-18T12:07:45.360Z,21.83
2022-08-18T12:10:29.029Z,16.98
2022-08-18T12:13:00.345Z,18.25
2022-08-18T12:15:43.419Z,21.77
2022-08-18T12:18:18.943Z,18.50
2022-08-18T12:20:55.279Z,21.23
2022-08-18T12:23:22.275Z,17.75
2022-08-18T12:25:51.830Z,18.20
2022-08-18T12:28:22.122Z,15.27
2022-08-18T12:33:48.171Z,17.88
2022-08-18T12:36:25.000Z,16.88
2022-08-18T12:38:57.102Z,17.05
2022-08-18T12:41:24.388Z,14.93
2022-08-18T12:46:42.963Z,15.13
2022-08-18T12:49:19.735Z,13.82
2022-08-18T12:51:50.429Z,15.65
2022-08-18T12:54:18.719Z,17.75
2022-08-18T12:56:51.496Z,16.35
2022-08-18T12:59:18.956Z,14.27
2022-08-18T13:01:46.715Z,14.23
2022-08-18T13:04:15.487Z,14.52
2022-08-18T13:07:00.743Z,20.75
2022-08-18T13:09:47.939Z,14.57
2022-08-18T13:12:18.872Z,14.70
2022-08-18T13:14:47.496Z,15.73
2022-08-18T13:17:32.113Z,14.70
2022-08-18T13:20:14.386Z,13.07
2022-08-18T13:22:42.345Z,19.75
2022-08-18T13:25:28.821Z,17.02
2022-08-18T13:28:00.610Z,15.13
2022-08-18T13:30:32.139Z,12.43
2022-08-18T13:33:05.344Z,15.82
2022-08-18T13:35:52.453Z,19.50
2022-08-18T13:38:27.204Z,17.92
2022-08-18T13:40:58.649Z,18.40
2022-08-18T13:43:39.302Z,17.80
2022-08-18T13:46:09.202Z,17.83
2022-08-18T13:48:38.521Z,15.52
2022-08-18T13:51:08.661Z,18.77
2022-08-18T13:53:50.563Z,19.13
2022-08-18T13:56:30.966Z,19.25
2022-08-18T13:58:59.377Z,20.20
2022-08-18T14:01:51.359Z,18.55
2022-08-18T14:04:20.559Z,19.13
2022-08-18T14:06:56.135Z,15.63
2022-08-18T14:09:36.377Z,17.63
2022-08-18T14:12:21.765Z,16.08
2022-08-18T14:14:53.086Z,19.70
2022-08-18T14:17:22.614Z,18.55
2022-08-18T14:20:15.423Z,15.65
2022-08-18T14:23:10.376Z,13.25
2022-08-18T14:25:56.181Z,19.63
2022-08-18T14:28:24.537Z,19.23
2022-08-18T14:30:54.664Z,16.17
2022-08-18T14:33:27.186Z,20.70
2022-08-18T14:36:06.447Z,15.60
2022-08-18T14:38:38.190Z,16.65
2022-08-18T14:41:07.745Z,16.42
2022-08-18T14:44:12.693Z,15.82
2022-08-18T14:46:23.704Z,17.15
2022-08-18T14:48:57.465Z,15.18
2022-08-18T14:51:27.064Z,18.02
2022-08-18T14:53:55.299Z,17.33
2022-08-18T14:56:24.466Z,16.67
2022-08-18T14:58:56.785Z,15.85
2022-08-18T15:01:24.451Z,20.63
2022-08-18T15:03:51.633Z,20.48
2022-08-18T15:06:27.137Z,16.75
2022-08-18T15:08:57.090Z,13.23
2022-08-18T15:11:25.073Z,19.17
2022-08-18T15:13:55.166Z,17.45
2022-08-18T15:16:31.632Z,23.80
2022-08-18T15:19:00.475Z,18.27
2022-08-18T15:21:47.827Z,14.63
2022-08-18T15:24:37.647Z,18.30
2022-08-18T15:27:10.418Z,20.80
2022-08-18T15:29:46.441Z,18.30
2022-08-18T15:32:15.266Z,19.33
2022-08-18T15:34:46.134Z,15.57
2022-08-18T15:37:19.397Z,19.02
2022-08-18T15:39:51.910Z,20.08
2022-08-18T15:42:23.555Z,16.02
2022-08-18T15:44:53.574Z,17.92
2022-08-18T15:47:22.159Z,16.90
2022-08-18T15:49:52.536Z,19.85
2022-08-18T15:52:26.020Z,18.95
2022-08-18T15:54:56.948Z,16.45
2022-08-18T15:57:39.151Z,20.40
2022-08-18T16:00:08.184Z,22.33
2022-08-18T16:05:09.061Z,16.58
2022-08-18T16:07:41.107Z,19.48
2022-08-18T16:10:13.376Z,16.02
2022-08-18T16:12:40.985Z,19.60
2022-08-18T16:15:19.825Z,19.80
2022-08-18T16:17:53.299Z,19.90
2022-08-18T16:20:23.882Z,18.08
2022-08-18T16:22:52.582Z,19.42
2022-08-18T16:25:20.674Z,16.55
2022-08-18T16:27:48.082Z,16.30
2022-08-18T16:30:22.662Z,15.30
2022-08-18T16:32:50.820Z,19.85
2022-08-18T16:35:18.980Z,15.52
2022-08-18T16:37:49.077Z,17.52
2022-08-18T16:40:18.807Z,18.48
2022-08-18T16:42:46.845Z,19.80
2022-08-18T16:45:14.970Z,20.33
2022-08-18T16:47:42.030Z,17.65
2022-08-18T16:50:14.676Z,16.45
2022-08-18T16:52:41.857Z,19.95
2022-08-18T16:55:11.190Z,16.80
2022-08-18T16:57:58.735Z,15.45
2022-08-18T17:00:45.246Z,17.63
2022-08-18T17:03:31.605Z,18.40
2022-08-18T17:06:04.987Z,15.82
2022-08-18T17:08:35.342Z,16.75
2022-08-18T17:11:04.456Z,19.45
2022-08-18T17:13:33.503Z,19.90
2022-08-18T17:16:00.672Z,15.23
2022-08-18T17:18:29.432Z,16.98
2022-08-18T17:21:01.159Z,19.40
2022-08-18T17:23:28.297Z,19.83
2022-08-18T17:25:56.203Z,19.30
2022-08-18T17:28:29.963Z,19.27
2022-08-18T17:30:59.292Z,20.13
2022-08-18T17:33:31.124Z,16.85
2022-08-18T17:36:04.033Z,19.58
2022-08-18T17:38:49.367Z,19.90
2022-08-18T17:41:18.605Z,19.33
2022-08-18T17:43:46.045Z,26.73
2022-08-18T17:46:26.895Z,21.85
2022-08-18T17:49:02.151Z,21.13
2022-08-18T17:51:44.331Z,19.13
2022-08-18T17:54:17.886Z,24.40
2022-08-18T17:56:52.558Z,20.45
2022-08-18T17:59:46.124Z,20.48
2022-08-18T18:02:29.334Z,19.98
2022-08-18T18:04:59.917Z,20.95
2022-08-18T18:07:35.498Z,27.38
2022-08-18T18:10:05.464Z,21.83
2022-08-18T18:12:35.641Z,26.35
2022-08-18T18:15:10.081Z,22.67
2022-08-18T18:17:40.408Z,22.75
2022-08-18T18:20:12.172Z,29.35
2022-08-18T18:22:44.450Z,20.52
2022-08-18T18:25:13.424Z,23.15
2022-08-18T18:27:43.633Z,17.60
2022-08-18T18:30:27.557Z,24.88
2022-08-18T18:32:58.762Z,19.38
2022-08-18T18:35:31.031Z,21.25
2022-08-18T18:38:04.264Z,17.88
2022-08-18T18:40:41.228Z,23.40
2022-08-18T18:43:28.982Z,25.15
2022-08-18T18:46:04.870Z,23.35
2022-08-18T18:48:52.137Z,31.92
2022-08-18T18:51:33.951Z,25.45
2022-08-18T18:54:50.001Z,24.90
2022-08-18T18:57:30.065Z,25.13
2022-08-18T19:00:16.792Z,23.33
2022-08-18T19:02:46.862Z,24.40
2022-08-18T19:05:24.844Z,23.02
2022-08-18T19:08:05.268Z,26.63
2022-08-18T19:10:44.063Z,31.33
2022-08-18T19:13:26.823Z,22.40
2022-08-18T19:16:23.557Z,23.50
2022-08-18T19:19:35.383Z,26.27
2022-08-18T19:22:05.712Z,22.92
2022-08-18T19:24:38.616Z,26.40
2022-08-18T19:27:12.054Z,22.45
2022-08-18T19:29:43.534Z,20.15
2022-08-18T19:32:16.851Z,24.00
2022-08-18T19:34:51.425Z,25.70
2022-08-18T19:37:53.785Z,22.42
2022-08-18T19:40:32.953Z,21.15
2022-08-18T19:43:11.348Z,21.52
2022-08-18T19:45:58.702Z,25.92
2022-08-18T19:48:32.038Z,24.17
2022-08-18T19:51:47.698Z,26.63
2022-08-18T19:54:39.949Z,25.00
2022-08-18T19:57:32.895Z,27.42
2022-08-18T20:03:18.424Z,23.25
2022-08-18T20:05:52.858Z,23.17
2022-08-18T20:08:36.573Z,22.63
2022-08-18T20:11:03.585Z,25.80
2022-08-18T20:13:35.218Z,29.10
2022-08-18T20:16:02.198Z,24.00
2022-08-18T20:18:34.422Z,21.55
2022-08-18T20:21:22.519Z,25.55
2022-08-18T20:24:02.770Z,24.42
2022-08-18T20:26:38.650Z,28.23
2022-08-18T20:29:06.383Z,20.55
2022-08-18T20:31:49.089Z,24.95
2022-08-18T20:36:47.485Z,20.95
2022-08-18T20:39:41.076Z,28.58
2022-08-18T20:42:37.230Z,29.77
2022-08-18T20:45:10.308Z,23.92
2022-08-18T20:48:00.545Z,28.65
2022-08-18T20:50:57.439Z,27.58
2022-08-18T20:53:49.786Z,23.27
2022-08-18T20:59:19.973Z,29.98
2022-08-18T21:04:53.073Z,25.00
2022-08-18T21:07:36.544Z,42.90
2022-08-18T21:10:12.958Z,30.63
2022-08-18T21:12:51.701Z,27.20
2022-08-18T21:15:26.431Z,23.40
2022-08-18T21:18:02.259Z,25.27
2022-08-18T21:20:31.336Z,24.20
2022-08-18T21:23:06.317Z,23.08
2022-08-18T21:25:34.047Z,25.42
2022-08-18T21:28:03.796Z,25.52
2022-08-18T21:30:31.884Z,25.45
2022-08-18T21:32:58.961Z,27.48
2022-08-18T21:35:29.982Z,28.48
2022-08-18T21:38:03.520Z,28.92
2022-08-18T21:40:36.308Z,31.63
2022-08-18T21:43:03.511Z,27.35
2022-08-18T21:45:31.705Z,31.35
2022-08-18T21:48:04.502Z,29.58
2022-08-18T21:50:34.593Z,31.75
2022-08-18T21:53:14.510Z,30.35
2022-08-18T21:55:54.915Z,31.50
2022-08-18T21:58:45.150Z,26.98
2022-08-18T22:01:20.492Z,26.55
2022-08-18T22:03:49.216Z,31.58
2022-08-18T22:06:33.498Z,29.35
2022-08-18T22:09:39.363Z,27.70
2022-08-18T22:12:47.869Z,33.35
2022-08-18T22:15:24.237Z,29.80
2022-08-18T22:17:59.569Z,29.23
2022-08-18T22:20:51.148Z,29.48
2022-08-18T22:23:51.836Z,31.02
2022-08-18T22:26:37.065Z,27.15
2022-08-18T22:29:08.122Z,29.73
2022-08-18T22:31:38.492Z,26.10
2022-08-18T22:34:10.024Z,28.25
2022-08-18T22:36:40.775Z,26.00
2022-08-18T22:39:10.886Z,26.33
2022-08-18T22:41:39.253Z,26.15
2022-08-18T22:44:07.291Z,30.65
2022-08-18T22:46:34.906Z,28.77
2022-08-18T22:49:03.827Z,29.73
2022-08-18T22:51:32.764Z,31.17
2022-08-18T22:53:59.804Z,32.97
2022-08-18T22:56:35.063Z,33.10
2022-08-18T22:59:13.765Z,32.03
2022-08-18T23:01:50.070Z,31.20
2022-08-18T23:04:20.140Z,31.30
2022-08-18T23:06:53.749Z,29.60
2022-08-18T23:09:30.441Z,27.50
2022-08-18T23:12:15.892Z,29.80
2022-08-18T23:14:46.237Z,28.58
2022-08-18T23:17:14.201Z,31.63
2022-08-18T23:19:42.596Z,30.45
2022-08-18T23:22:10.573Z,30.73
2022-08-18T23:24:38.452Z,30.23
2022-08-18T23:27:06.605Z,31.75
2022-08-18T23:29:37.390Z,29.85
2022-08-18T23:32:06.861Z,30.08
2022-08-18T23:34:35.023Z,31.05
2022-08-18T23:37:03.549Z,33.53
2022-08-18T23:39:33.043Z,29.98
2022-08-18T23:42:01.629Z,35.33
2022-08-18T23:44:29.300Z,33.53
2022-08-18T23:46:58.065Z,28.10
2022-08-18T23:49:29.008Z,40.88
2022-08-18T23:51:57.718Z,29.42
2022-08-18T23:54:27.819Z,30.60
2022-08-18T23:56:55.121Z,27.52
2022-08-18T23:59:27.027Z,31.67
